< < Back
Terminal Aerodrome Forecast


Current Version              Previous Versions:   1  2  3  4  5  6  7  8  9  

Terminal Aerodrome Forecast

243
FTUS42 KFFC 021732
TAFPDK
TAF
KPDK 021732Z 0218/0318 33007KT P6SM BKN050
     FM030000 30005KT P6SM SCT050 BKN200
     FM031500 34005KT P6SM SCT050 BKN200=



Latest METAR

643
SAUS70 KWBC 031900 RRL
MTRPDK
METAR KPDK 031853Z 00000KT 9SM VCTS SCT039 29/23 A2998 RMK AO2 LTG DSNT
ALQDS SLP134 T02940228


USA.gov is the U.S. government's official web portal to all federal, state and local government web resources and services.